Terminal Aerodrome Forecast
Issued by NWS Shreveport, LA

Home | Current Version | Previous Version | Text Only | Print | Product List | Glossary On
Versions: 1 2 3 4 5 6 7 8 9 10 11 12 13 14
000
FTUS44 KSHV 012000 AAA
TAFELD
TAF AMD
KELD 012045Z 0121/0218 06008KT P6SM SCT006 BKN018 OVC026
      TEMPO 0121/0124 3SM BR OVC007
     FM020600 02003KT 5SM BR BKN025
      TEMPO 0209/0213 1SM BR OVC003
     FM021300 05006KT P6SM OVC015=

USA.gov is the U.S. government's official web portal to all federal, state and local government web resources and services.